Time;durP1;ratioP1;P1;durP2;ratioP2;P2;SDS_P1;SDS_P2;PMS_P1;PMS_P2;Temp;Humidity;BMP_temperature;BMP_pressure;BME280_temperature;BME280_humidity;BME280_pressure;Samples;Min_cycle;Max_cycle;Signal;HPM_P1;HPM_P2
2023/06/24 00:01:41;;;;;;;;;;;;;;;;;;7366270;19;1351;-64
2023/06/24 00:04:09;;;;;;;;;;;;;;;;;;7370326;19;828;-64
2023/06/24 00:06:39;;;;;;;;;;;;;;;;;;7369739;19;878;-63
2023/06/24 00:09:07;;;;;;;;;;;;;;;;;;7367944;19;844;-64
2023/06/24 00:11:36;;;;;;;;;;;;;;;;;;7367661;19;1248;-64
2023/06/24 00:14:05;;;;;;;;;;;;;;;;;;7372290;19;818;-64
2023/06/24 00:16:33;;;;;;;;;;;;;;;;;;7368582;19;864;-64
2023/06/24 00:19:01;;;;;;;;;;;;;;;;;;7367016;19;1881;-64
2023/06/24 00:21:30;;;;;;;;;;;;;;;;;;7369953;19;1770;-64
2023/06/24 00:23:58;;;;;;;;;;;;;;;;;;7368824;19;821;-64
2023/06/24 00:26:26;;;;;;;;;;;;;;;;;;7368183;19;807;-64
2023/06/24 00:28:54;;;;;;;;;;;;;;;;;;7368339;19;805;-64
2023/06/24 00:31:22;;;;;;;;;;;;;;;;;;7368827;19;1282;-64
2023/06/24 00:33:52;;;;;;;;;;;;;;;;;;7367241;19;842;-64
2023/06/24 00:36:20;;;;;;;;;;;;;;;;;;7371686;19;1557;-64
2023/06/24 00:38:49;;;;;;;;;;;;;;;;;;7366581;19;1850;-64
2023/06/24 00:41:18;;;;;;;;;;;;;;;;;;7365334;19;1811;-64
2023/06/24 00:43:46;;;;;;;;;;;;;;;;;;7372695;19;1396;-64
2023/06/24 00:46:15;;;;;;;;;;;;;;;;;;7369302;19;1660;-64
2023/06/24 00:48:43;;;;;;;;;;;;;;;;;;7371602;19;1357;-63
2023/06/24 00:51:11;;;;;;;;;;;;;;;;;;7364499;19;1761;-64
2023/06/24 00:53:39;;;;;;;;;;;;;;;;;;7370125;19;1803;-64
2023/06/24 00:56:07;;;;;;;;;;;;;;;;;;7369873;19;1621;-64
2023/06/24 00:58:36;;;;;;;;;;;;;;;;;;7370115;19;1857;-64
2023/06/24 01:01:05;;;;;;;;;;;;;;;;;;7368821;19;1694;-64
2023/06/24 01:03:33;;;;;;;;;;;;;;;;;;7367337;19;1629;-64
2023/06/24 01:06:01;;;;;;;;;;;;;;;;;;7371151;19;1691;-64
2023/06/24 01:08:30;;;;;;;;;;;;;;;;;;7370476;19;1425;-63
2023/06/24 01:10:58;;;;;;;;;;;;;;;;;;7365872;19;1281;-64
2023/06/24 01:13:26;;;;;;;;;;;;;;;;;;7367238;19;1824;-64
2023/06/24 01:15:54;;;;;;;;;;;;;;;;;;7370568;19;1655;-64
2023/06/24 01:18:22;;;;;;;;;;;;;;;;;;7368755;19;1845;-63
2023/06/24 01:20:52;;;;;;;;;;;;;;;;;;7369373;19;1455;-64
2023/06/24 01:23:22;;;;;;;;;;;;;;;;;;7364501;19;2090;-64
2023/06/24 01:25:50;;;;;;;;;;;;;;;;;;7369820;19;1909;-64
2023/06/24 01:28:19;;;;;;;;;;;;;;;;;;7368577;19;2053;-63
2023/06/24 01:30:47;;;;;;;;;;;;;;;;;;7368392;19;1696;-64
2023/06/24 01:33:16;;;;;;;;;;;;;;;;;;7366114;19;1712;-64
2023/06/24 01:35:45;;;;;;;;;;;;;;;;;;7370280;19;1668;-62
2023/06/24 01:38:13;;;;;;;;;;;;;;;;;;7367084;19;2059;-63
2023/06/24 01:40:41;;;;;;;;;;;;;;;;;;7366430;19;1849;-64
2023/06/24 01:43:09;;;;;;;;;;;;;;;;;;7364988;19;860;-63
2023/06/24 01:45:39;;;;;;;;;;;;;;;;;;7369625;19;1732;-63
2023/06/24 01:48:07;;;;;;;;;;;;;;;;;;7370225;19;1102;-63
2023/06/24 01:50:35;;;;;;;;;;;;;;;;;;7364330;19;1345;-63
2023/06/24 01:53:03;;;;;;;;;;;;;;;;;;7367762;19;1858;-61
2023/06/24 01:55:31;;;;;;;;;;;;;;;;;;7369050;19;1828;-63
2023/06/24 01:57:59;;;;;;;;;;;;;;;;;;7368190;19;1624;-63
2023/06/24 02:00:28;;;;;;;;;;;;;;;;;;7364622;19;1850;-63
2023/06/24 02:02:56;;;;;;;;;;;;;;;;;;7370696;19;1884;-64
2023/06/24 02:05:24;;;;;;;;;;;;;;;;;;7369023;19;1784;-62
2023/06/24 02:07:53;;;;;;;;;;;;;;;;;;7366995;19;1616;-64
2023/06/24 02:10:21;;;;;;;;;;;;;;;;;;7366771;19;1808;-64
2023/06/24 02:12:49;;;;;;;;;;;;;;;;;;7370608;19;1664;-64
2023/06/24 02:15:17;;;;;;;;;;;;;;;;;;7368545;19;1252;-64
2023/06/24 02:17:47;;;;;;;;;;;;;;;;;;7368427;19;1669;-64
2023/06/24 02:20:16;;;;;;;;;;;;;;;;;;7363197;19;2056;-64
2023/06/24 02:22:44;;;;;;;;;;;;;;;;;;7367588;19;1492;-64
2023/06/24 02:25:12;;;;;;;;;;;;;;;;;;7362649;19;1759;-64
2023/06/24 02:27:40;;;;;;;;;;;;;;;;;;7366582;19;1686;-64
2023/06/24 02:30:08;;;;;;;;;;;;;;;;;;7365072;19;1504;-64
2023/06/24 02:32:38;;;;;;;;;;;;;;;;;;7367990;19;1614;-64
2023/06/24 02:35:07;;;;;;;;;;;;;;;;;;7368891;19;908;-64
2023/06/24 02:37:35;;;;;;;;;;;;;;;;;;7365706;19;1657;-64
2023/06/24 02:40:04;;;;;;;;;;;;;;;;;;7360796;19;1849;-64
2023/06/24 02:42:33;;;;;;;;;;;;;;;;;;7364473;19;935;-64
2023/06/24 02:45:01;;;;;;;;;;;;;;;;;;7364514;19;838;-64
2023/06/24 02:47:29;;;;;;;;;;;;;;;;;;7363641;19;2190;-64
2023/06/24 02:49:57;;;;;;;;;;;;;;;;;;7364134;19;1273;-64
2023/06/24 02:52:28;;;;;;;;;;;;;;;;;;7363616;19;863;-64
2023/06/24 02:54:56;;;;;;;;;;;;;;;;;;7363740;19;692;-64
2023/06/24 02:57:46;;;;;;;;;;;;;;;;;;7362149;19;799;-64
2023/06/24 03:00:37;;;;;;;;;;;;;;;;;;7363881;19;1850;-64
2023/06/24 03:03:08;;;;;;;;;;;;;;;;;;7367697;19;1391;-64
2023/06/24 03:05:39;;;;;;;;;;;;;;;;;;7365482;19;1833;-64
2023/06/24 03:08:07;;;;;;;;;;;;;;;;;;7364848;19;1497;-64
2023/06/24 03:10:37;;;;;;;;;;;;;;;;;;7361303;19;1270;-64
2023/06/24 03:13:06;;;;;;;;;;;;;;;;;;7361273;19;1504;-64
2023/06/24 03:15:43;;;;;;;;;;;;;;;;;;7367260;19;1515;-64
2023/06/24 03:18:11;;;;;;;;;;;;;;;;;;7362802;19;862;-64
2023/06/24 03:20:41;;;;;;;;;;;;;;;;;;7363102;19;1881;-64
2023/06/24 03:23:13;;;;;;;;;;;;;;;;;;7365876;19;2000;-64
2023/06/24 03:25:41;;;;;;;;;;;;;;;;;;7364522;19;2054;-64
2023/06/24 03:28:09;;;;;;;;;;;;;;;;;;7363990;19;1682;-64
2023/06/24 03:30:47;;;;;;;;;;;;;;;;;;7360604;19;1292;-64
2023/06/24 03:33:19;;;;;;;;;;;;;;;;;;7363514;19;1688;-63
2023/06/24 03:35:47;;;;;;;;;;;;;;;;;;7365876;19;1591;-63
2023/06/24 03:38:20;;;;;;;;;;;;;;;;;;7367859;19;706;-64
2023/06/24 03:40:49;;;;;;;;;;;;;;;;;;7365975;19;1837;-64
2023/06/24 03:43:17;;;;;;;;;;;;;;;;;;7368449;19;1712;-64
2023/06/24 03:45:45;;;;;;;;;;;;;;;;;;7369579;19;1987;-64
2023/06/24 03:48:14;;;;;;;;;;;;;;;;;;7369837;19;1327;-64
2023/06/24 03:50:42;;;;;;;;;;;;;;;;;;7367747;19;1727;-64
2023/06/24 03:53:10;;;;;;;;;;;;;;;;;;7370513;19;1707;-64
2023/06/24 03:55:39;;;;;;;;;;;;;;;;;;7371143;19;1949;-64
2023/06/24 03:58:08;;;;;;;;;;;;;;;;;;7370046;19;1651;-63
2023/06/24 04:00:40;;;;;;;;;;;;;;;;;;7369143;19;1861;-64
2023/06/24 04:03:08;;;;;;;;;;;;;;;;;;7369688;19;1530;-64
2023/06/24 04:05:36;;;;;;;;;;;;;;;;;;7372094;19;1630;-63
2023/06/24 04:08:05;;;;;;;;;;;;;;;;;;7368965;19;883;-63
2023/06/24 04:10:33;;;;;;;;;;;;;;;;;;7366407;19;1817;-63
2023/06/24 04:13:02;;;;;;;;;;;;;;;;;;7369296;19;1698;-64
2023/06/24 04:15:30;;;;;;;;;;;;;;;;;;7369229;19;1707;-64
2023/06/24 04:17:58;;;;;;;;;;;;;;;;;;7371076;19;1263;-64
2023/06/24 04:20:26;;;;;;;;;;;;;;;;;;7365729;19;1837;-64
2023/06/24 04:22:54;;;;;;;;;;;;;;;;;;7368728;19;2129;-63
2023/06/24 04:25:22;;;;;;;;;;;;;;;;;;7371332;19;1634;-64
2023/06/24 04:27:50;;;;;;;;;;;;;;;;;;7367587;19;803;-63
2023/06/24 04:30:18;;;;;;;;;;;;;;;;;;7369153;19;1578;-64
2023/06/24 04:32:47;;;;;;;;;;;;;;;;;;7369092;19;1785;-63
2023/06/24 04:35:15;;;;;;;;;;;;;;;;;;7367302;19;1914;-64
2023/06/24 04:37:43;;;;;;;;;;;;;;;;;;7370478;19;1602;-64
2023/06/24 04:40:12;;;;;;;;;;;;;;;;;;7365647;19;1854;-64
2023/06/24 04:42:40;;;;;;;;;;;;;;;;;;7369234;19;1810;-63
2023/06/24 04:45:08;;;;;;;;;;;;;;;;;;7371179;19;1392;-64
2023/06/24 04:47:36;;;;;;;;;;;;;;;;;;7368135;19;790;-65
2023/06/24 04:50:04;;;;;;;;;;;;;;;;;;7367212;19;1894;-64
2023/06/24 04:52:32;;;;;;;;;;;;;;;;;;7369131;19;2058;-64
2023/06/24 04:55:00;;;;;;;;;;;;;;;;;;7372012;19;1666;-65
2023/06/24 04:57:29;;;;;;;;;;;;;;;;;;7368634;19;884;-65
2023/06/24 04:59:57;;;;;;;;;;;;;;;;;;7366541;19;1857;-64
2023/06/24 05:02:25;;;;;;;;;;;;;;;;;;7372087;19;1809;-65
2023/06/24 05:04:53;;;;;;;;;;;;;;;;;;7371833;19;1466;-65
2023/06/24 05:07:21;;;;;;;;;;;;;;;;;;7367612;19;825;-63
2023/06/24 05:09:50;;;;;;;;;;;;;;;;;;7366515;19;1693;-65
2023/06/24 05:12:19;;;;;;;;;;;;;;;;;;7369093;19;1707;-63
2023/06/24 05:14:47;;;;;;;;;;;;;;;;;;7371479;19;1737;-63
2023/06/24 05:17:15;;;;;;;;;;;;;;;;;;7367392;19;881;-63
2023/06/24 05:19:43;;;;;;;;;;;;;;;;;;7366183;19;2298;-63
2023/06/24 05:22:11;;;;;;;;;;;;;;;;;;7368098;19;1716;-64
2023/06/24 05:24:41;;;;;;;;;;;;;;;;;;7370763;19;1386;-64
2023/06/24 05:27:09;;;;;;;;;;;;;;;;;;7366598;19;801;-64
2023/06/24 05:29:37;;;;;;;;;;;;;;;;;;7367507;19;1952;-64
2023/06/24 05:32:05;;;;;;;;;;;;;;;;;;7368691;19;1494;-64
2023/06/24 05:34:33;;;;;;;;;;;;;;;;;;7367254;19;787;-64
2023/06/24 05:37:01;;;;;;;;;;;;;;;;;;7364119;19;1831;-64
2023/06/24 05:39:30;;;;;;;;;;;;;;;;;;7368161;19;1144;-64
2023/06/24 05:41:58;;;;;;;;;;;;;;;;;;7363525;19;1850;-64
2023/06/24 05:44:26;;;;;;;;;;;;;;;;;;7363791;19;1658;-64
2023/06/24 05:46:54;;;;;;;;;;;;;;;;;;7369959;19;1762;-63
2023/06/24 05:49:22;;;;;;;;;;;;;;;;;;7367392;19;2023;-63
2023/06/24 05:51:50;;;;;;;;;;;;;;;;;;7363897;19;1731;-63
2023/06/24 05:54:18;;;;;;;;;;;;;;;;;;7367464;19;1812;-63
2023/06/24 05:56:46;;;;;;;;;;;;;;;;;;7369204;19;1504;-62
2023/06/24 05:59:17;;;;;;;;;;;;;;;;;;7360188;19;2126;-63
2023/06/24 06:01:45;;;;;;;;;;;;;;;;;;7366575;19;1995;-63
2023/06/24 06:04:13;;;;;;;;;;;;;;;;;;7365774;19;824;-63
2023/06/24 06:06:42;;;;;;;;;;;;;;;;;;7365162;19;2139;-63
2023/06/24 06:09:10;;;;;;;;;;;;;;;;;;7367802;19;1482;-64
2023/06/24 06:11:38;;;;;;;;;;;;;;;;;;7365093;19;1711;-63
2023/06/24 06:14:06;;;;;;;;;;;;;;;;;;7370341;19;1008;-63
2023/06/24 06:16:34;;;;;;;;;;;;;;;;;;7368246;19;1598;-65
2023/06/24 06:19:02;;;;;;;;;;;;;;;;;;7369278;19;1349;-63
2023/06/24 06:21:31;;;;;;;;;;;;;;;;;;7363277;19;1850;-63
2023/06/24 06:23:59;;;;;;;;;;;;;;;;;;7365362;19;781;-63
2023/06/24 06:26:27;;;;;;;;;;;;;;;;;;7367450;19;1988;-63
2023/06/24 06:28:55;;;;;;;;;;;;;;;;;;7368696;19;1457;-63
2023/06/24 06:31:25;;;;;;;;;;;;;;;;;;7361424;19;1291;-63
2023/06/24 06:33:53;;;;;;;;;;;;;;;;;;7367136;19;1814;-63
2023/06/24 06:36:22;;;;;;;;;;;;;;;;;;7368245;19;1629;-64
2023/06/24 06:38:50;;;;;;;;;;;;;;;;;;7364236;19;873;-64
2023/06/24 06:41:24;;;;;;;;;;;;;;;;;;7362951;19;1861;-64
2023/06/24 06:43:52;;;;;;;;;;;;;;;;;;7366291;19;1714;-64
2023/06/24 06:46:20;;;;;;;;;;;;;;;;;;7367271;19;1976;-64
2023/06/24 06:48:48;;;;;;;;;;;;;;;;;;7366636;19;1886;-64
2023/06/24 06:51:18;;;;;;;;;;;;;;;;;;7361833;19;1859;-64
2023/06/24 06:53:46;;;;;;;;;;;;;;;;;;7368942;19;2059;-63
2023/06/24 06:56:14;;;;;;;;;;;;;;;;;;7364541;19;800;-63
2023/06/24 06:58:42;;;;;;;;;;;;;;;;;;7363658;19;1636;-64
2023/06/24 07:01:10;;;;;;;;;;;;;;;;;;7361203;19;2086;-64
2023/06/24 07:03:39;;;;;;;;;;;;;;;;;;7367743;19;1456;-64
2023/06/24 07:06:07;;;;;;;;;;;;;;;;;;7364372;19;848;-64
2023/06/24 07:08:35;;;;;;;;;;;;;;;;;;7362656;19;1980;-64
2023/06/24 07:11:03;;;;;;;;;;;;;;;;;;7368144;19;1556;-63
2023/06/24 07:13:31;;;;;;;;;;;;;;;;;;7370571;19;793;-64
2023/06/24 07:15:59;;;;;;;;;;;;;;;;;;7369604;19;1921;-64
2023/06/24 07:18:30;;;;;;;;;;;;;;;;;;7371441;19;2095;-64
2023/06/24 07:20:58;;;;;;;;;;;;;;;;;;7372635;19;1891;-65
2023/06/24 07:23:26;;;;;;;;;;;;;;;;;;7370249;19;1918;-64
2023/06/24 07:25:54;;;;;;;;;;;;;;;;;;7373205;19;2256;-65
2023/06/24 07:28:22;;;;;;;;;;;;;;;;;;7371697;19;1659;-65
2023/06/24 07:30:50;;;;;;;;;;;;;;;;;;7370110;19;1939;-62
2023/06/24 07:33:19;;;;;;;;;;;;;;;;;;7373067;19;1497;-65
2023/06/24 07:35:47;;;;;;;;;;;;;;;;;;7370800;19;1826;-65
2023/06/24 07:38:15;;;;;;;;;;;;;;;;;;7368893;19;1764;-64
2023/06/24 07:40:43;;;;;;;;;;;;;;;;;;7370918;19;1853;-65
2023/06/24 07:43:11;;;;;;;;;;;;;;;;;;7370753;19;1698;-64
2023/06/24 07:45:39;;;;;;;;;;;;;;;;;;7373640;19;1450;-64
2023/06/24 07:48:07;;;;;;;;;;;;;;;;;;7368734;19;840;-65
2023/06/24 07:50:35;;;;;;;;;;;;;;;;;;7369702;19;1682;-63
2023/06/24 07:53:04;;;;;;;;;;;;;;;;;;7374260;19;1105;-61
2023/06/24 07:55:32;;;;;;;;;;;;;;;;;;7369447;19;805;-64
2023/06/24 07:58:00;;;;;;;;;;;;;;;;;;7370981;19;1828;-63
2023/06/24 08:00:28;;;;;;;;;;;;;;;;;;7371118;19;1849;-64
2023/06/24 08:02:56;;;;;;;;;;;;;;;;;;7369556;19;750;-62
2023/06/24 08:05:25;;;;;;;;;;;;;;;;;;7373845;19;891;-64
2023/06/24 08:07:53;;;;;;;;;;;;;;;;;;7369187;19;990;-63
2023/06/24 08:10:21;;;;;;;;;;;;;;;;;;7367369;19;1870;-64
2023/06/24 08:12:49;;;;;;;;;;;;;;;;;;7365768;19;1868;-63
2023/06/24 08:15:17;;;;;;;;;;;;;;;;;;7370631;19;1785;-64
2023/06/24 08:17:45;;;;;;;;;;;;;;;;;;7368742;19;1343;-64
2023/06/24 08:20:13;;;;;;;;;;;;;;;;;;7367184;19;1350;-65
2023/06/24 08:22:42;;;;;;;;;;;;;;;;;;7364822;19;1841;-65
2023/06/24 08:25:10;;;;;;;;;;;;;;;;;;7369151;19;872;-64
2023/06/24 08:27:38;;;;;;;;;;;;;;;;;;7368975;19;822;-64
2023/06/24 08:30:06;;;;;;;;;;;;;;;;;;7366913;19;1276;-64
2023/06/24 08:32:34;;;;;;;;;;;;;;;;;;7368713;19;869;-64
2023/06/24 08:35:02;;;;;;;;;;;;;;;;;;7368824;19;809;-64
2023/06/24 08:37:31;;;;;;;;;;;;;;;;;;7367732;19;850;-64
2023/06/24 08:39:59;;;;;;;;;;;;;;;;;;7364854;19;2126;-61
2023/06/24 08:42:27;;;;;;;;;;;;;;;;;;7367514;19;1879;-63
2023/06/24 08:44:55;;;;;;;;;;;;;;;;;;7372336;19;1449;-63
2023/06/24 08:47:23;;;;;;;;;;;;;;;;;;7370230;19;1696;-63
2023/06/24 08:49:53;;;;;;;;;;;;;;;;;;7371580;19;1465;-62
2023/06/24 08:52:21;;;;;;;;;;;;;;;;;;7370352;19;1787;-65
2023/06/24 08:54:49;;;;;;;;;;;;;;;;;;7371953;19;1642;-63
2023/06/24 08:57:18;;;;;;;;;;;;;;;;;;7370277;19;1652;-61
2023/06/24 08:59:46;;;;;;;;;;;;;;;;;;7368449;19;1616;-64
2023/06/24 09:02:14;;;;;;;;;;;;;;;;;;7368061;19;1868;-63
2023/06/24 09:04:43;;;;;;;;;;;;;;;;;;7371437;19;1160;-62
2023/06/24 09:07:11;;;;;;;;;;;;;;;;;;7367707;19;813;-63
2023/06/24 09:09:39;;;;;;;;;;;;;;;;;;7369026;19;1597;-63
2023/06/24 09:12:07;;;;;;;;;;;;;;;;;;7366902;19;1472;-63
2023/06/24 09:14:36;;;;;;;;;;;;;;;;;;7367705;19;815;-64
2023/06/24 09:17:04;;;;;;;;;;;;;;;;;;7366867;19;857;-63
2023/06/24 09:19:36;;;;;;;;;;;;;;;;;;7368274;19;1580;-64
2023/06/24 09:22:04;;;;;;;;;;;;;;;;;;7367661;19;1838;-63
2023/06/24 09:24:32;;;;;;;;;;;;;;;;;;7368659;19;1788;-64
2023/06/24 09:27:00;;;;;;;;;;;;;;;;;;7369187;19;1761;-63
2023/06/24 09:29:29;;;;;;;;;;;;;;;;;;7362703;19;1861;-63
2023/06/24 09:31:59;;;;;;;;;;;;;;;;;;7367943;19;1714;-63
2023/06/24 09:34:27;;;;;;;;;;;;;;;;;;7364499;19;1959;-63
2023/06/24 09:36:55;;;;;;;;;;;;;;;;;;7369490;19;1675;-63
2023/06/24 09:39:28;;;;;;;;;;;;;;;;;;7368285;19;1796;-61
2023/06/24 09:41:56;;;;;;;;;;;;;;;;;;7366024;19;1845;-63
2023/06/24 09:44:24;;;;;;;;;;;;;;;;;;7368335;19;1621;-63
2023/06/24 09:46:52;;;;;;;;;;;;;;;;;;7369585;19;1391;-64
2023/06/24 09:49:20;;;;;;;;;;;;;;;;;;7365898;19;802;-62
2023/06/24 09:51:48;;;;;;;;;;;;;;;;;;7363523;19;1349;-63
2023/06/24 09:54:17;;;;;;;;;;;;;;;;;;7365962;19;1808;-62
2023/06/24 09:56:45;;;;;;;;;;;;;;;;;;7370182;19;1651;-60
2023/06/24 09:59:13;;;;;;;;;;;;;;;;;;7365709;19;798;-63
2023/06/24 10:01:41;;;;;;;;;;;;;;;;;;7363931;19;1846;-63
2023/06/24 10:04:09;;;;;;;;;;;;;;;;;;7369669;19;1929;-62
2023/06/24 10:06:38;;;;;;;;;;;;;;;;;;7370164;19;1457;-61
2023/06/24 10:09:06;;;;;;;;;;;;;;;;;;7365173;19;1687;-62
2023/06/24 10:11:34;;;;;;;;;;;;;;;;;;7366345;19;1784;-63
2023/06/24 10:14:02;;;;;;;;;;;;;;;;;;7368272;19;1702;-61
2023/06/24 10:16:30;;;;;;;;;;;;;;;;;;7368215;19;1806;-63
2023/06/24 10:18:58;;;;;;;;;;;;;;;;;;7367420;19;1799;-63
2023/06/24 10:21:26;;;;;;;;;;;;;;;;;;7364281;19;1920;-63
2023/06/24 10:23:55;;;;;;;;;;;;;;;;;;7368722;19;1326;-63
2023/06/24 10:26:23;;;;;;;;;;;;;;;;;;7367540;19;1820;-63
2023/06/24 10:28:51;;;;;;;;;;;;;;;;;;7366017;19;1779;-61
2023/06/24 10:31:19;;;;;;;;;;;;;;;;;;7365996;19;1792;-63
2023/06/24 10:33:48;;;;;;;;;;;;;;;;;;7365599;19;1648;-63
2023/06/24 10:36:16;;;;;;;;;;;;;;;;;;7363714;19;765;-62
2023/06/24 10:38:44;;;;;;;;;;;;;;;;;;7364074;19;872;-62
2023/06/24 10:41:12;;;;;;;;;;;;;;;;;;7363202;19;1865;-64
2023/06/24 10:43:40;;;;;;;;;;;;;;;;;;7364808;19;823;-63
2023/06/24 10:46:08;;;;;;;;;;;;;;;;;;7373766;19;868;-63
2023/06/24 10:48:36;;;;;;;;;;;;;;;;;;7377783;19;832;-62
2023/06/24 10:51:04;;;;;;;;;;;;;;;;;;7376902;19;1269;-63
2023/06/24 10:53:32;;;;;;;;;;;;;;;;;;7377121;19;1546;-63
2023/06/24 10:56:01;;;;;;;;;;;;;;;;;;7379010;19;1945;-63
2023/06/24 10:58:29;;;;;;;;;;;;;;;;;;7380644;19;1798;-63
2023/06/24 11:00:57;;;;;;;;;;;;;;;;;;7380664;19;1468;-64
2023/06/24 11:03:26;;;;;;;;;;;;;;;;;;7375332;19;1841;-62
2023/06/24 11:05:54;;;;;;;;;;;;;;;;;;7380621;19;1743;-62
2023/06/24 11:08:24;;;;;;;;;;;;;;;;;;7381081;19;1497;-61
2023/06/24 11:10:52;;;;;;;;;;;;;;;;;;7376521;19;1740;-63
2023/06/24 11:13:20;;;;;;;;;;;;;;;;;;7380730;19;1622;-63
2023/06/24 11:15:49;;;;;;;;;;;;;;;;;;7381817;19;1455;-62
2023/06/24 11:18:17;;;;;;;;;;;;;;;;;;7377125;19;858;-62
2023/06/24 11:20:45;;;;;;;;;;;;;;;;;;7377083;19;2054;-62
2023/06/24 11:23:13;;;;;;;;;;;;;;;;;;7377871;19;1845;-62
2023/06/24 11:25:42;;;;;;;;;;;;;;;;;;7377208;19;838;-62
2023/06/24 11:28:10;;;;;;;;;;;;;;;;;;7377144;19;1968;-60
2023/06/24 11:30:38;;;;;;;;;;;;;;;;;;7379552;19;1646;-63
2023/06/24 11:33:06;;;;;;;;;;;;;;;;;;7378382;19;1669;-63
2023/06/24 11:35:37;;;;;;;;;;;;;;;;;;7380905;19;1397;-63
2023/06/24 11:38:05;;;;;;;;;;;;;;;;;;7379175;19;1645;-63
2023/06/24 11:40:33;;;;;;;;;;;;;;;;;;7378524;19;1665;-63
2023/06/24 11:43:01;;;;;;;;;;;;;;;;;;7379477;19;1838;-63
2023/06/24 11:45:30;;;;;;;;;;;;;;;;;;7377775;19;842;-61
2023/06/24 11:47:58;;;;;;;;;;;;;;;;;;7375984;19;824;-62
2023/06/24 11:50:26;;;;;;;;;;;;;;;;;;7375451;19;1331;-62
2023/06/24 11:52:54;;;;;;;;;;;;;;;;;;7376626;19;791;-62
2023/06/24 11:55:23;;;;;;;;;;;;;;;;;;7376376;19;894;-61
2023/06/24 11:57:51;;;;;;;;;;;;;;;;;;7370289;19;832;-61
2023/06/24 12:00:19;;;;;;;;;;;;;;;;;;7368136;19;1249;-62
2023/06/24 12:02:47;;;;;;;;;;;;;;;;;;7368440;19;2044;-61
2023/06/24 12:05:16;;;;;;;;;;;;;;;;;;7371964;19;1657;-62
2023/06/24 12:07:44;;;;;;;;;;;;;;;;;;7370471;19;1683;-63
2023/06/24 12:10:12;;;;;;;;;;;;;;;;;;7370244;19;1666;-61
2023/06/24 12:12:40;;;;;;;;;;;;;;;;;;7371852;19;1706;-63
2023/06/24 12:15:08;;;;;;;;;;;;;;;;;;7371332;19;1474;-63
2023/06/24 12:17:36;;;;;;;;;;;;;;;;;;7369062;19;857;-62
2023/06/24 12:20:05;;;;;;;;;;;;;;;;;;7370457;19;1629;-62
2023/06/24 12:22:33;;;;;;;;;;;;;;;;;;7370083;19;1868;-63
2023/06/24 12:25:01;;;;;;;;;;;;;;;;;;7372677;19;1503;-63
2023/06/24 12:27:29;;;;;;;;;;;;;;;;;;7371283;19;1539;-62
2023/06/24 12:29:57;;;;;;;;;;;;;;;;;;7370216;19;1620;-62
2023/06/24 12:32:26;;;;;;;;;;;;;;;;;;7370707;19;1471;-62
2023/06/24 12:34:54;;;;;;;;;;;;;;;;;;7368857;19;1960;-61
2023/06/24 12:37:22;;;;;;;;;;;;;;;;;;7371300;19;1449;-63
2023/06/24 12:39:50;;;;;;;;;;;;;;;;;;7367182;19;1341;-62
2023/06/24 12:42:19;;;;;;;;;;;;;;;;;;7366840;19;1849;-63
2023/06/24 12:44:47;;;;;;;;;;;;;;;;;;7367590;19;767;-62
2023/06/24 12:47:15;;;;;;;;;;;;;;;;;;7366560;19;2037;-62
2023/06/24 12:49:43;;;;;;;;;;;;;;;;;;7370946;19;1610;-62
2023/06/24 12:52:11;;;;;;;;;;;;;;;;;;7364950;19;1358;-62
2023/06/24 12:54:39;;;;;;;;;;;;;;;;;;7367391;19;1674;-62
2023/06/24 12:57:07;;;;;;;;;;;;;;;;;;7369167;19;1492;-61
2023/06/24 12:59:35;;;;;;;;;;;;;;;;;;7366483;19;856;-61
2023/06/24 13:02:03;;;;;;;;;;;;;;;;;;7366465;19;1917;-63
2023/06/24 13:04:32;;;;;;;;;;;;;;;;;;7371241;19;1686;-62
2023/06/24 13:07:00;;;;;;;;;;;;;;;;;;7372019;19;1452;-62
2023/06/24 13:09:28;;;;;;;;;;;;;;;;;;7363268;19;839;-60
2023/06/24 13:11:56;;;;;;;;;;;;;;;;;;7363933;19;1344;-62
2023/06/24 13:14:26;;;;;;;;;;;;;;;;;;7365778;19;1976;-62
2023/06/24 13:16:54;;;;;;;;;;;;;;;;;;7368928;19;1610;-61
2023/06/24 13:19:23;;;;;;;;;;;;;;;;;;7368663;19;1463;-62
2023/06/24 13:21:51;;;;;;;;;;;;;;;;;;7367250;19;2044;-61
2023/06/24 13:24:19;;;;;;;;;;;;;;;;;;7367715;19;1700;-61
2023/06/24 13:26:47;;;;;;;;;;;;;;;;;;7368990;19;1983;-62
2023/06/24 13:29:15;;;;;;;;;;;;;;;;;;7366079;19;1784;-60
2023/06/24 13:31:43;;;;;;;;;;;;;;;;;;7367891;19;1467;-62
2023/06/24 13:34:11;;;;;;;;;;;;;;;;;;7366352;19;972;-62
2023/06/24 13:36:40;;;;;;;;;;;;;;;;;;7366459;19;825;-62
2023/06/24 13:39:08;;;;;;;;;;;;;;;;;;7365855;19;818;-62
2023/06/24 13:41:36;;;;;;;;;;;;;;;;;;7366062;19;1238;-61
2023/06/24 13:44:05;;;;;;;;;;;;;;;;;;7363769;19;1845;-62
2023/06/24 13:46:33;;;;;;;;;;;;;;;;;;7368967;19;1722;-61
2023/06/24 13:49:01;;;;;;;;;;;;;;;;;;7369439;19;1757;-61
2023/06/24 13:51:29;;;;;;;;;;;;;;;;;;7365429;19;1703;-61
2023/06/24 13:53:57;;;;;;;;;;;;;;;;;;7369413;19;1475;-63
2023/06/24 13:56:25;;;;;;;;;;;;;;;;;;7367075;19;1852;-62
2023/06/24 13:58:54;;;;;;;;;;;;;;;;;;7369457;19;1760;-63
2023/06/24 14:01:22;;;;;;;;;;;;;;;;;;7365249;19;1841;-61
2023/06/24 14:03:50;;;;;;;;;;;;;;;;;;7369054;19;1850;-62
2023/06/24 14:06:19;;;;;;;;;;;;;;;;;;7368385;19;2106;-63
2023/06/24 14:08:47;;;;;;;;;;;;;;;;;;7365871;19;1659;-63
2023/06/24 14:11:15;;;;;;;;;;;;;;;;;;7360744;19;1810;-62
2023/06/24 14:13:43;;;;;;;;;;;;;;;;;;7365230;19;857;-62
2023/06/24 14:16:12;;;;;;;;;;;;;;;;;;7365399;19;873;-63
2023/06/24 14:18:41;;;;;;;;;;;;;;;;;;7363596;19;868;-61
2023/06/24 14:21:09;;;;;;;;;;;;;;;;;;7362359;19;1702;-62
2023/06/24 14:23:37;;;;;;;;;;;;;;;;;;7363281;19;1850;-61
2023/06/24 14:26:05;;;;;;;;;;;;;;;;;;7365041;19;813;-62
2023/06/24 14:28:33;;;;;;;;;;;;;;;;;;7362216;19;1516;-62
2023/06/24 14:31:01;;;;;;;;;;;;;;;;;;7365502;19;1988;-62
2023/06/24 14:33:29;;;;;;;;;;;;;;;;;;7366035;19;1763;-63
2023/06/24 14:35:58;;;;;;;;;;;;;;;;;;7367705;19;1953;-62
2023/06/24 14:38:26;;;;;;;;;;;;;;;;;;7366690;19;2086;-62
2023/06/24 14:40:55;;;;;;;;;;;;;;;;;;7367100;19;1652;-63
2023/06/24 14:43:24;;;;;;;;;;;;;;;;;;7364894;19;1857;-64
2023/06/24 14:45:52;;;;;;;;;;;;;;;;;;7366911;19;1751;-64
2023/06/24 14:48:20;;;;;;;;;;;;;;;;;;7366276;19;1743;-64
2023/06/24 14:50:48;;;;;;;;;;;;;;;;;;7363557;19;1727;-64
2023/06/24 14:53:16;;;;;;;;;;;;;;;;;;7367167;19;1661;-63
2023/06/24 14:55:44;;;;;;;;;;;;;;;;;;7363708;19;872;-63
2023/06/24 14:58:12;;;;;;;;;;;;;;;;;;7363440;19;817;-63
2023/06/24 15:00:40;;;;;;;;;;;;;;;;;;7362820;19;1695;-63
2023/06/24 15:03:09;;;;;;;;;;;;;;;;;;7365670;19;1828;-62
2023/06/24 15:05:39;;;;;;;;;;;;;;;;;;7367904;19;1676;-63
2023/06/24 15:08:07;;;;;;;;;;;;;;;;;;7363408;19;1795;-63
2023/06/24 15:10:35;;;;;;;;;;;;;;;;;;7364840;19;1994;-63
2023/06/24 15:13:03;;;;;;;;;;;;;;;;;;7367317;19;1497;-63
2023/06/24 15:15:31;;;;;;;;;;;;;;;;;;7363338;19;876;-63
2023/06/24 15:18:00;;;;;;;;;;;;;;;;;;7363084;19;845;-63
2023/06/24 15:20:28;;;;;;;;;;;;;;;;;;7362574;19;1327;-63
2023/06/24 15:22:56;;;;;;;;;;;;;;;;;;7362499;19;1837;-62
2023/06/24 15:25:24;;;;;;;;;;;;;;;;;;7368076;19;1659;-62
2023/06/24 15:27:52;;;;;;;;;;;;;;;;;;7367742;19;1491;-64
2023/06/24 15:30:20;;;;;;;;;;;;;;;;;;7362111;19;1554;-63
2023/06/24 15:32:49;;;;;;;;;;;;;;;;;;7369412;19;1462;-63
2023/06/24 15:35:17;;;;;;;;;;;;;;;;;;7369534;19;2085;-63
2023/06/24 15:37:45;;;;;;;;;;;;;;;;;;7373584;19;1672;-63
2023/06/24 15:40:13;;;;;;;;;;;;;;;;;;7369614;19;1820;-64
2023/06/24 15:42:41;;;;;;;;;;;;;;;;;;7371832;19;1848;-63
2023/06/24 15:45:09;;;;;;;;;;;;;;;;;;7369474;19;1272;-63
2023/06/24 15:47:38;;;;;;;;;;;;;;;;;;7369124;19;821;-63
2023/06/24 15:50:06;;;;;;;;;;;;;;;;;;7368395;19;1287;-63
2023/06/24 15:52:34;;;;;;;;;;;;;;;;;;7368919;19;754;-63
2023/06/24 15:55:02;;;;;;;;;;;;;;;;;;7368462;19;860;-63
2023/06/24 15:57:30;;;;;;;;;;;;;;;;;;7368771;19;871;-63
2023/06/24 15:59:58;;;;;;;;;;;;;;;;;;7368150;19;1342;-63
2023/06/24 16:02:26;;;;;;;;;;;;;;;;;;7368610;19;876;-63
2023/06/24 16:04:54;;;;;;;;;;;;;;;;;;7365887;19;1903;-63
2023/06/24 16:07:23;;;;;;;;;;;;;;;;;;7370305;19;1594;-63
2023/06/24 16:09:51;;;;;;;;;;;;;;;;;;7370223;19;1851;-62
2023/06/24 16:12:19;;;;;;;;;;;;;;;;;;7370513;19;1782;-62
2023/06/24 16:14:47;;;;;;;;;;;;;;;;;;7369259;19;1794;-63
2023/06/24 16:17:15;;;;;;;;;;;;;;;;;;7372220;19;1468;-63
2023/06/24 16:19:43;;;;;;;;;;;;;;;;;;7369840;19;1705;-63
2023/06/24 16:22:11;;;;;;;;;;;;;;;;;;7367337;19;1886;-63
2023/06/24 16:24:40;;;;;;;;;;;;;;;;;;7370534;19;1857;-63
2023/06/24 16:27:08;;;;;;;;;;;;;;;;;;7368842;19;739;-63
2023/06/24 16:29:36;;;;;;;;;;;;;;;;;;7367752;19;1638;-63
2023/06/24 16:32:04;;;;;;;;;;;;;;;;;;7369495;19;1644;-64
2023/06/24 16:34:32;;;;;;;;;;;;;;;;;;7367378;19;867;-63
2023/06/24 16:37:00;;;;;;;;;;;;;;;;;;7366766;19;1597;-63
2023/06/24 16:39:29;;;;;;;;;;;;;;;;;;7367842;19;2007;-63
2023/06/24 16:41:57;;;;;;;;;;;;;;;;;;7366998;19;1891;-62
2023/06/24 16:44:26;;;;;;;;;;;;;;;;;;7366746;19;1858;-63
2023/06/24 16:46:54;;;;;;;;;;;;;;;;;;7370101;19;1841;-63
2023/06/24 16:49:22;;;;;;;;;;;;;;;;;;7367985;19;1957;-62
2023/06/24 16:51:50;;;;;;;;;;;;;;;;;;7367112;19;1830;-62
2023/06/24 16:54:21;;;;;;;;;;;;;;;;;;7371024;19;1760;-63
2023/06/24 16:56:49;;;;;;;;;;;;;;;;;;7371633;19;2554;-63
2023/06/24 16:59:17;;;;;;;;;;;;;;;;;;7366713;19;1588;-63
2023/06/24 17:01:45;;;;;;;;;;;;;;;;;;7368732;19;1630;-63
2023/06/24 17:04:13;;;;;;;;;;;;;;;;;;7368354;19;1960;-62
2023/06/24 17:06:41;;;;;;;;;;;;;;;;;;7367815;19;1755;-62
2023/06/24 17:09:09;;;;;;;;;;;;;;;;;;7368507;19;1888;-63
2023/06/24 17:11:38;;;;;;;;;;;;;;;;;;7368708;19;1751;-63
2023/06/24 17:14:06;;;;;;;;;;;;;;;;;;7366878;19;882;-62